Time;durP1;ratioP1;P1;durP2;ratioP2;P2;SDS_P1;SDS_P2;PMS_P1;PMS_P2;Temp;Humidity;BMP_temperature;BMP_pressure;BME280_temperature;BME280_humidity;BME280_pressure;Samples;Min_cycle;Max_cycle;Signal;HPM_P1;HPM_P2
2023/06/22 00:00:57;;;;;;;17.90;7.72;;;;;;;22.96;72.05;98487.56;5012178;28;20544;-44
2023/06/22 00:03:24;;;;;;;17.48;6.78;;;;;;;22.95;72.01;98484.09;5012248;28;20149;-45
2023/06/22 00:05:50;;;;;;;25.40;7.85;;;;;;;22.84;71.74;98483.44;5012196;28;20032;-44
2023/06/22 00:08:16;;;;;;;18.30;6.53;;;;;;;22.97;72.81;98483.81;5002193;28;20137;-44
2023/06/22 00:10:42;;;;;;;17.58;5.93;;;;;;;23.40;71.62;98475.78;5012140;28;20033;-44
2023/06/22 00:13:09;;;;;;;19.98;5.68;;;;;;;23.66;70.05;98469.00;5010735;28;20034;-44
2023/06/22 00:15:36;;;;;;;23.20;6.53;;;;;;;23.72;68.94;98467.00;5012290;28;20123;-45
2023/06/22 00:18:02;;;;;;;12.98;5.50;;;;;;;23.72;68.62;98462.47;5012088;28;20084;-44
2023/06/22 00:20:28;;;;;;;15.90;5.63;;;;;;;23.79;67.91;98462.09;5012047;28;20141;-44
2023/06/22 00:22:58;;;;;;;18.75;6.22;;;;;;;23.86;67.65;98459.03;5010685;28;20037;-44
2023/06/22 00:25:24;;;;;;;22.00;6.03;;;;;;;23.79;67.49;98447.91;5012350;28;20068;-44
2023/06/22 00:27:50;;;;;;;20.30;6.43;;;;;;;23.84;67.35;98450.50;5010636;28;20033;-44
2023/06/22 00:30:17;;;;;;;24.35;7.53;;;;;;;23.78;66.44;98438.28;5011910;28;20041;-44
2023/06/22 00:32:43;;;;;;;13.32;5.55;;;;;;;23.69;66.50;98438.13;5011971;28;20037;-45
2023/06/22 00:35:12;;;;;;;16.65;6.13;;;;;;;23.63;66.05;98437.41;4994196;28;20497;-44
2023/06/22 00:37:41;;;;;;;18.73;5.85;;;;;;;23.50;66.82;98422.88;5011835;28;20030;-44
2023/06/22 00:40:11;;;;;;;12.23;5.47;;;;;;;23.60;66.69;98426.47;5010681;28;20022;-44
2023/06/22 00:42:37;;;;;;;21.60;6.60;;;;;;;23.61;66.76;98433.44;5011745;28;20068;-44
2023/06/22 00:45:03;;;;;;;14.18;5.53;;;;;;;23.72;66.68;98427.63;5010484;28;20022;-44
2023/06/22 00:47:28;;;;;;;21.20;5.82;;;;;;;23.50;66.02;98411.34;5011830;28;20022;-44
2023/06/22 00:49:54;;;;;;;20.77;5.70;;;;;;;23.07;67.15;98411.47;5010460;28;20038;-44
2023/06/22 00:52:26;;;;;;;17.52;6.63;;;;;;;22.74;68.12;98403.31;5011762;28;20545;-45
2023/06/22 00:54:52;;;;;;;17.73;6.28;;;;;;;22.31;69.38;98400.56;5012752;28;20062;-44
2023/06/22 00:57:20;;;;;;;13.43;5.60;;;;;;;21.99;70.56;98396.59;4998148;28;20220;-44
2023/06/22 00:59:48;;;;;;;16.83;6.80;;;;;;;21.58;72.28;98388.94;5015510;28;20045;-44
2023/06/22 01:02:14;;;;;;;18.80;5.95;;;;;;;21.33;73.49;98382.72;5015456;28;20037;-44
2023/06/22 01:04:40;;;;;;;13.75;5.82;;;;;;;21.03;74.43;98385.59;5015429;28;20029;-44
2023/06/22 01:08:05;;;;;;;18.92;6.00;;;;;;;20.93;76.33;98386.44;4997554;28;20041;-45
2023/06/22 01:10:52;;;;;;;19.45;7.40;;;;;;;20.86;75.78;98373.38;4900707;29;20126;-44
2023/06/22 01:13:46;;;;;;;15.35;6.05;;;;;;;20.79;76.69;98375.56;4916474;29;20040;-44
2023/06/22 01:16:20;;;;;;;17.15;7.38;;;;;;;20.85;76.71;98368.34;4916436;29;20457;-44
2023/06/22 01:18:50;;;;;;;13.05;5.63;;;;;;;20.76;76.46;98373.44;4916489;29;20187;-44
2023/06/22 01:21:19;;;;;;;16.65;6.28;;;;;;;20.72;76.95;98372.41;4900596;29;20051;-44
2023/06/22 01:23:52;;;;;;;18.80;8.07;;;;;;;20.79;77.78;98380.13;4900521;29;20043;-44
2023/06/22 01:26:52;;;;;;;12.23;5.97;;;;;;;20.88;77.76;98389.13;4916277;29;20100;-44
2023/06/22 01:29:18;;;;;;;19.65;6.43;;;;;;;21.01;76.67;98387.72;4916372;29;20032;-44
2023/06/22 01:31:45;;;;;;;16.75;5.97;;;;;;;20.99;76.90;98388.00;4916249;29;20075;-44
2023/06/22 01:34:12;;;;;;;17.40;6.55;;;;;;;21.05;76.83;98394.91;4916263;29;20065;-44
2023/06/22 01:36:40;;;;;;;19.00;6.60;;;;;;;20.97;75.96;98392.00;4900273;29;20054;-44
2023/06/22 01:39:07;;;;;;;13.00;6.47;;;;;;;20.74;76.11;98399.59;4900235;29;20044;-44
2023/06/22 01:41:37;;;;;;;24.98;6.97;;;;;;;20.49;77.23;98405.81;4962079;28;20034;-44
2023/06/22 01:44:07;;;;;;;14.48;7.40;;;;;;;20.52;78.29;98413.25;4997079;28;20030;-44
2023/06/22 01:46:35;;;;;;;19.40;6.80;;;;;;;20.82;78.28;98411.56;5014879;28;20112;-44
2023/06/22 01:49:02;;;;;;;16.00;6.70;;;;;;;21.16;77.26;98400.97;4996996;28;20034;-44
2023/06/22 01:51:28;;;;;;;17.67;6.45;;;;;;;21.56;76.19;98417.03;5014488;28;20033;-44
2023/06/22 01:53:54;;;;;;;17.30;7.57;;;;;;;21.82;74.71;98407.72;4996736;28;20667;-45
2023/06/22 01:56:19;;;;;;;17.48;6.15;;;;;;;22.04;73.87;98409.91;4996770;28;20026;-44
2023/06/22 01:59:07;;;;;;;23.40;6.30;;;;;;;22.31;72.97;98414.75;5014692;28;20030;-44
2023/06/22 02:01:42;;;;;;;14.95;6.20;;;;;;;22.61;72.06;98417.38;4998377;28;20041;-44
2023/06/22 02:04:11;;;;;;;;;;;;;;;22.80;70.89;98417.38;4997197;28;20030;-44
2023/06/22 02:06:39;;;;;;;19.23;6.03;;;;;;;22.85;70.54;98423.47;4996513;28;19960;-44
2023/06/22 02:09:16;;;;;;;19.40;6.50;;;;;;;23.02;69.18;98425.72;5010967;28;20054;-44
2023/06/22 02:11:45;;;;;;;17.83;6.35;;;;;;;23.03;69.18;98427.28;5014195;28;20030;-44
2023/06/22 02:14:12;;;;;;;20.08;5.60;;;;;;;22.96;68.33;98428.69;5014100;28;20104;-44
2023/06/22 02:16:38;;;;;;;14.40;6.25;;;;;;;22.65;68.26;98432.56;5012761;28;20499;-44
2023/06/22 02:19:03;;;;;;;24.30;6.43;;;;;;;22.47;69.43;98428.75;5014065;28;20049;-44
2023/06/22 02:21:31;;;;;;;17.52;5.72;;;;;;;22.58;69.61;98428.63;5012635;28;20457;-44
2023/06/22 02:23:56;;;;;;;12.85;6.10;;;;;;;22.30;69.25;98428.41;5013867;28;20026;-44
2023/06/22 02:26:24;;;;;;;22.42;6.78;;;;;;;21.99;70.43;98417.97;4996266;28;20099;-44
2023/06/22 02:28:50;;;;;;;19.40;6.75;;;;;;;22.02;70.88;98419.31;5013849;28;20515;-44
2023/06/22 02:31:16;;;;;;;27.08;6.47;;;;;;;22.25;71.06;98417.75;5013786;28;20112;-44
2023/06/22 02:33:43;;;;;;;19.25;7.18;;;;;;;22.31;70.20;98420.09;5012342;28;20030;-44
2023/06/22 02:36:09;;;;;;;14.85;5.93;;;;;;;22.20;69.83;98423.13;5013717;28;20049;-44
2023/06/22 02:38:36;;;;;;;21.13;6.30;;;;;;;22.19;69.76;98416.97;5013634;28;20156;-44
2023/06/22 02:41:02;;;;;;;21.20;5.78;;;;;;;22.27;69.46;98424.41;5013836;28;20091;-44
2023/06/22 02:43:27;;;;;;;22.85;6.35;;;;;;;22.30;69.08;98425.75;5013823;28;20034;-44
2023/06/22 02:45:53;;;;;;;23.23;5.65;;;;;;;22.26;69.20;98428.19;5013525;28;20451;-44
2023/06/22 02:48:19;;;;;;;18.17;6.25;;;;;;;22.02;69.06;98430.78;5013521;28;20022;-44
2023/06/22 02:50:45;;;;;;;23.63;6.85;;;;;;;21.91;69.99;98426.59;5012095;28;20044;-44
2023/06/22 02:53:10;;;;;;;23.42;6.70;;;;;;;22.09;70.61;98439.28;5013360;28;20109;-44
2023/06/22 02:55:36;;;;;;;22.38;6.55;;;;;;;22.29;70.21;98440.16;5011913;28;20553;-44
2023/06/22 02:58:04;;;;;;;22.23;6.95;;;;;;;22.52;69.62;98435.94;5013351;28;20044;-44
2023/06/22 03:00:31;;;;;;;15.48;6.28;;;;;;;22.66;68.88;98446.75;5013239;28;20026;-44
2023/06/22 03:02:57;;;;;;;19.83;6.15;;;;;;;22.56;68.09;98446.84;5013275;28;20030;-44
2023/06/22 03:05:23;;;;;;;13.73;6.15;;;;;;;22.32;68.49;98450.31;5013104;28;20037;-44
2023/06/22 03:07:49;;;;;;;23.40;6.68;;;;;;;22.23;68.84;98454.63;5011649;28;20570;-44
2023/06/22 03:10:15;;;;;;;21.40;6.35;;;;;;;22.23;69.17;98451.97;5011720;28;20046;-44
2023/06/22 03:12:42;;;;;;;26.00;6.40;;;;;;;22.39;69.06;98455.31;5013029;28;20045;-44
2023/06/22 03:15:11;;;;;;;18.35;6.85;;;;;;;22.42;68.74;98460.91;4995281;28;20111;-44
2023/06/22 03:17:38;;;;;;;18.38;6.53;;;;;;;22.35;68.29;98452.41;5012379;28;20029;-44
2023/06/22 03:20:10;;;;;;;21.60;6.90;;;;;;;22.16;68.67;98457.66;5011553;28;20565;-44
2023/06/22 03:22:38;;;;;;;27.52;6.65;;;;;;;22.08;70.33;98459.06;5011716;28;20064;-44
2023/06/22 03:25:10;;;;;;;17.08;6.53;;;;;;;21.92;69.95;98462.94;5012799;28;20385;-44
2023/06/22 03:27:39;;;;;;;14.95;6.93;;;;;;;21.34;70.72;98466.25;5012694;28;20081;-44
2023/06/22 03:30:09;;;;;;;16.38;9.13;;;;;;;20.88;72.21;98480.59;5012694;28;20141;-44
2023/06/22 03:32:34;;;;;;;23.13;11.27;;;;;;;20.57;73.49;98477.22;5012686;28;20065;-44
2023/06/22 03:35:00;;;;;;;35.33;21.23;;;;;;;20.26;75.23;98493.28;5011329;28;20068;-44
2023/06/22 03:37:26;;;;;;;46.20;41.13;;;;;;;20.03;76.60;98536.44;5012894;28;20476;-44
2023/06/22 03:39:52;;;;;;;41.78;32.22;;;;;;;20.28;77.77;98543.63;5011271;28;20034;-44
2023/06/22 03:42:18;;;;;;;44.47;39.75;;;;;;;20.60;76.69;98540.69;5012533;28;20026;-44
2023/06/22 03:44:44;;;;;;;24.02;7.10;;;;;;;20.87;75.50;98542.25;5011241;28;20494;-44
2023/06/22 03:47:10;;;;;;;18.33;7.07;;;;;;;20.74;74.55;98543.59;5011136;28;20037;-44
2023/06/22 03:49:36;;;;;;;22.73;7.18;;;;;;;20.45;75.37;98551.38;5012691;28;20128;-44
2023/06/22 03:52:02;;;;;;;22.92;6.82;;;;;;;20.17;76.83;98553.50;5011074;28;20543;-44
2023/06/22 03:54:29;;;;;;;19.75;7.78;;;;;;;20.06;77.97;98543.88;5012274;28;20032;-44
2023/06/22 03:56:54;;;;;;;25.27;8.23;;;;;;;19.99;79.07;98540.72;5011047;28;20058;-44
2023/06/22 03:59:20;;;;;;;19.88;6.97;;;;;;;19.92;79.86;98547.09;5012331;28;20479;-45
2023/06/22 04:01:46;;;;;;;25.15;7.63;;;;;;;19.93;80.47;98551.34;4994919;28;20125;-44
2023/06/22 04:04:12;;;;;;;15.38;7.53;;;;;;;19.91;80.77;98577.44;5012185;28;20037;-44
2023/06/22 04:06:38;;;;;;;26.30;7.50;;;;;;;19.94;80.83;98576.09;5012398;28;20052;-44
2023/06/22 04:09:05;;;;;;;19.88;7.72;;;;;;;20.05;80.45;98563.63;5012035;28;20442;-44
2023/06/22 04:11:31;;;;;;;21.23;7.13;;;;;;;20.13;80.08;98566.53;5012084;28;20076;-44
2023/06/22 04:13:56;;;;;;;19.20;7.25;;;;;;;20.17;79.78;98579.34;4994407;28;20026;-44
2023/06/22 04:16:22;;;;;;;26.05;7.95;;;;;;;20.13;80.12;98585.19;5011987;28;20030;-44
2023/06/22 04:18:48;;;;;;;23.52;7.38;;;;;;;20.27;80.32;98606.78;5012025;28;20116;-44
2023/06/22 04:21:14;;;;;;;24.80;9.50;;;;;;;20.47;79.89;98605.22;4994372;28;20546;-44
2023/06/22 04:23:39;;;;;;;23.70;6.82;;;;;;;20.82;79.09;98607.06;4978241;28;20025;-44
2023/06/22 04:26:05;;;;;;;24.52;6.93;;;;;;;21.13;78.48;98621.16;4994317;28;20077;-44
2023/06/22 04:28:34;;;;;;;26.17;7.47;;;;;;;21.66;76.94;98623.38;4994330;28;20091;-44
2023/06/22 04:31:02;;;;;;;30.13;7.78;;;;;;;22.10;74.80;98611.91;5015005;28;20113;-44
2023/06/22 04:33:29;;;;;;;20.92;7.28;;;;;;;22.21;73.55;98617.97;4998522;28;20037;-44
2023/06/22 04:35:57;;;;;;;19.25;6.70;;;;;;;22.31;72.52;98606.44;5015935;28;20435;-44
2023/06/22 04:38:23;;;;;;;22.40;7.65;;;;;;;22.29;72.54;98576.53;5015794;28;20069;-44
2023/06/22 04:40:49;;;;;;;22.95;6.90;;;;;;;22.48;72.43;98580.09;5015865;28;20029;-44
2023/06/22 04:43:15;;;;;;;22.52;7.25;;;;;;;22.86;71.13;98596.34;5015767;28;20030;-44
2023/06/22 04:45:41;;;;;;;23.52;8.48;;;;;;;23.14;69.95;98583.25;5015725;28;20076;-44
2023/06/22 04:48:08;;;;;;;20.85;7.55;;;;;;;23.22;68.24;98582.59;5015766;28;20030;-44
2023/06/22 04:50:33;;;;;;;34.92;8.60;;;;;;;22.91;68.88;98593.59;5015584;28;20496;-44
2023/06/22 04:52:59;;;;;;;25.90;7.53;;;;;;;22.94;69.12;98605.66;4997922;28;20030;-44
2023/06/22 04:55:25;;;;;;;25.42;7.15;;;;;;;23.12;69.03;98604.94;5015506;28;20030;-44
2023/06/22 04:57:51;;;;;;;20.85;7.78;;;;;;;23.27;68.45;98614.66;4998172;28;20407;-44
2023/06/22 05:00:19;;;;;;;19.73;7.00;;;;;;;23.36;68.51;98614.03;4997797;28;20037;-44
2023/06/22 05:02:46;;;;;;;34.05;8.98;;;;;;;23.58;68.18;98595.53;5015481;28;20522;-44
2023/06/22 05:05:16;;;;;;;28.25;7.43;;;;;;;23.76;67.51;98585.91;4997739;28;20069;-44
2023/06/22 05:07:48;;;;;;;21.20;7.45;;;;;;;23.71;66.19;98584.13;5015129;28;20558;-45
2023/06/22 05:10:14;;;;;;;21.58;7.57;;;;;;;23.27;66.29;98585.22;5015327;28;20033;-44
2023/06/22 05:12:41;;;;;;;22.63;6.55;;;;;;;22.66;68.37;98591.19;4997921;28;20034;-44
2023/06/22 05:15:10;;;;;;;26.15;7.25;;;;;;;22.16;70.35;98587.84;4997539;28;20026;-44
2023/06/22 05:17:42;;;;;;;21.50;7.20;;;;;;;21.83;71.64;98564.28;5015389;28;20049;-44
2023/06/22 05:20:12;;;;;;;16.70;7.25;;;;;;;21.43;73.64;98554.59;5015117;28;20026;-44
2023/06/22 05:22:39;;;;;;;19.63;7.28;;;;;;;21.15;74.88;98570.19;5015095;28;20034;-44
2023/06/22 05:25:10;;;;;;;25.85;8.35;;;;;;;20.94;76.44;98586.22;4997374;28;20068;-44
2023/06/22 05:27:39;;;;;;;20.40;7.13;;;;;;;21.08;76.40;98596.34;4997416;28;20084;-44
2023/06/22 05:30:09;;;;;;;15.93;6.82;;;;;;;21.30;75.75;98614.69;5015138;28;20053;-44
2023/06/22 05:32:36;;;;;;;16.77;6.65;;;;;;;21.45;75.20;98613.84;5014974;28;20034;-44
2023/06/22 05:35:03;;;;;;;17.05;7.15;;;;;;;21.65;74.85;98604.97;4997135;28;20080;-44
2023/06/22 05:37:29;;;;;;;27.42;7.43;;;;;;;21.70;74.55;98589.72;4997201;28;20079;-44
2023/06/22 05:39:55;;;;;;;22.83;6.60;;;;;;;21.74;74.37;98544.56;4996932;28;20061;-44
2023/06/22 05:42:21;;;;;;;17.40;6.88;;;;;;;21.69;74.01;98537.38;4996743;28;20488;-44
2023/06/22 05:44:47;;;;;;;31.65;7.82;;;;;;;21.68;74.54;98537.66;4997028;28;20033;-44
2023/06/22 05:47:13;;;;;;;30.55;7.47;;;;;;;21.85;74.19;98526.56;5014640;28;20404;-44
2023/06/22 05:49:39;;;;;;;19.75;7.00;;;;;;;21.93;74.09;98526.78;4997035;28;20125;-44
2023/06/22 05:52:05;;;;;;;23.60;8.30;;;;;;;21.74;74.06;98521.31;4997276;28;20141;-44
2023/06/22 05:54:31;;;;;;;16.23;7.82;;;;;;;21.44;75.23;98500.13;4997006;28;20538;-44
2023/06/22 05:56:57;;;;;;;15.93;7.63;;;;;;;21.20;76.34;98502.63;5014449;28;20034;-44
2023/06/22 05:59:22;;;;;;;30.05;8.75;;;;;;;21.13;77.20;98526.97;5014424;28;20100;-44
2023/06/22 06:01:51;;;;;;;23.40;8.13;;;;;;;21.20;77.60;98523.97;4996822;28;20506;-44
2023/06/22 06:04:19;;;;;;;27.25;8.20;;;;;;;21.62;77.75;98534.19;5014360;28;20021;-44
2023/06/22 06:06:46;;;;;;;21.27;7.45;;;;;;;21.88;76.96;98513.47;4996705;28;20038;-44
2023/06/22 06:09:14;;;;;;;22.08;8.20;;;;;;;22.15;75.99;98514.84;5014117;28;20045;-44
2023/06/22 06:11:39;;;;;;;37.63;8.68;;;;;;;22.54;75.71;98532.72;5014163;28;20120;-44
2023/06/22 06:14:05;;;;;;;70.03;10.68;;;;;;;22.93;74.13;98537.13;4996447;28;20084;-44
2023/06/22 06:16:31;;;;;;;69.05;12.95;;;;;;;23.11;73.40;98532.94;4980314;28;20506;-44
2023/06/22 06:18:58;;;;;;;40.85;8.75;;;;;;;23.37;72.46;98546.00;5013996;28;20026;-44
2023/06/22 06:21:24;;;;;;;34.83;7.97;;;;;;;23.74;71.08;98539.84;5013948;28;20033;-44
2023/06/22 06:23:50;;;;;;;33.88;9.50;;;;;;;23.92;70.00;98546.31;5013977;28;20071;-44
2023/06/22 06:26:16;;;;;;;29.25;8.73;;;;;;;23.98;69.57;98571.16;4996233;28;20068;-44
2023/06/22 06:28:43;;;;;;;36.85;9.48;;;;;;;24.02;68.87;98575.66;5014105;28;20049;-44
2023/06/22 06:31:09;;;;;;;23.42;6.78;;;;;;;24.04;68.53;98564.66;5013767;28;20025;-44
2023/06/22 06:33:35;;;;;;;128.32;13.82;;;;;;;24.12;68.76;98550.56;5013928;28;20512;-44
2023/06/22 06:36:03;;;;;;;54.55;10.88;;;;;;;24.19;70.71;98486.66;5013672;28;20476;-44
2023/06/22 06:38:30;;;;;;;97.20;14.88;;;;;;;24.02;72.68;98457.69;5013886;28;20148;-44
2023/06/22 06:40:56;;;;;;;56.97;11.32;;;;;;;23.79;73.89;98477.41;5013608;28;20298;-44
2023/06/22 06:43:22;;;;;;;39.80;10.10;;;;;;;23.36;76.27;98501.56;5013563;28;20084;-44
2023/06/22 06:45:48;;;;;;;32.05;10.35;;;;;;;23.20;79.34;98517.84;5013542;28;20085;-44
2023/06/22 06:48:14;;;;;;;25.38;9.15;;;;;;;23.29;80.76;98528.69;4995888;28;20502;-44
2023/06/22 06:50:39;;;;;;;38.97;10.57;;;;;;;23.31;81.39;98538.03;4995780;28;20045;-44
2023/06/22 06:53:06;;;;;;;46.70;10.77;;;;;;;23.36;83.24;98566.63;5012756;28;20040;-44
2023/06/22 06:55:32;;;;;;;36.38;10.32;;;;;;;23.46;83.25;98571.88;5013461;28;20030;-44
2023/06/22 06:57:59;;;;;;;48.47;9.32;;;;;;;23.93;82.92;98558.66;5013358;28;20034;-44
2023/06/22 07:00:25;;;;;;;30.30;8.73;;;;;;;24.17;79.80;98530.94;5013427;28;20037;-44
2023/06/22 07:02:51;;;;;;;41.28;10.90;;;;;;;23.81;79.16;98485.94;4995553;28;20129;-44
2023/06/22 07:05:17;;;;;;;27.55;13.13;;;;;;;24.05;80.52;98483.13;4995564;28;20543;-45
2023/06/22 07:07:43;;;;;;;27.52;10.40;;;;;;;24.77;79.39;98484.53;5001832;28;20046;-44
2023/06/22 07:10:09;;;;;;;34.00;13.02;;;;;;;25.99;75.73;98474.91;5032733;28;20037;-44
2023/06/22 07:12:35;;;;;;;24.75;8.85;;;;;;;27.15;71.16;98463.19;5015059;28;20037;-44
2023/06/22 07:15:05;;;;;;;24.85;10.57;;;;;;;28.04;66.48;98461.75;5032687;28;20075;-45
2023/06/22 07:17:31;;;;;;;109.07;16.58;;;;;;;28.42;65.23;98461.00;5032740;28;20033;-45
2023/06/22 07:19:57;;;;;;;36.70;9.82;;;;;;;29.12;62.74;98462.56;5014881;28;20030;-45
2023/06/22 07:22:23;;;;;;;22.92;6.70;;;;;;;29.86;58.40;98461.03;5014876;28;20033;-45
2023/06/22 07:24:49;;;;;;;24.67;8.10;;;;;;;30.53;55.03;98444.72;5032582;28;20021;-45
2023/06/22 07:27:18;;;;;;;31.30;8.02;;;;;;;31.35;51.73;98454.53;5014746;28;20083;-45
2023/06/22 07:29:44;;;;;;;36.35;8.40;;;;;;;31.92;48.74;98450.69;5032402;28;20057;-45
2023/06/22 07:32:10;;;;;;;33.97;9.05;;;;;;;31.33;49.00;98446.75;5032446;28;20072;-45
2023/06/22 07:34:35;;;;;;;29.98;8.50;;;;;;;30.55;50.50;98447.88;5014603;28;20049;-45
2023/06/22 07:37:01;;;;;;;127.60;15.25;;;;;;;29.81;51.83;98434.97;5032328;28;20025;-45
2023/06/22 07:39:28;;;;;;;45.97;10.57;;;;;;;29.39;52.46;98431.53;5032375;28;20021;-44
2023/06/22 07:41:53;;;;;;;57.63;10.55;;;;;;;29.18;53.11;98431.56;5032207;28;20040;-45
2023/06/22 07:44:19;;;;;;;48.75;8.38;;;;;;;29.80;52.31;98429.91;5032217;28;20025;-45
2023/06/22 07:46:45;;;;;;;45.47;10.23;;;;;;;31.49;48.47;98429.75;5032215;28;20041;-45
2023/06/22 07:49:11;;;;;;;61.83;11.48;;;;;;;32.35;45.95;98423.84;5014353;28;20087;-45
2023/06/22 07:51:37;;;;;;;41.08;8.55;;;;;;;33.38;43.84;98422.66;5032101;28;20517;-45
2023/06/22 07:54:02;;;;;;;27.25;7.47;;;;;;;34.29;41.35;98422.34;5014219;28;20053;-45
2023/06/22 07:56:28;;;;;;;30.35;6.38;;;;;;;33.88;41.52;98422.81;5014220;28;20025;-45
2023/06/22 07:58:54;;;;;;;22.88;6.60;;;;;;;33.11;41.74;98421.72;5031952;28;20033;-45
2023/06/22 08:01:23;;;;;;;14.63;5.82;;;;;;;32.09;42.78;98427.09;5031940;28;20026;-45
2023/06/22 08:03:49;;;;;;;16.63;6.18;;;;;;;31.15;44.70;98429.16;5031750;28;20553;-45
2023/06/22 08:06:14;;;;;;;16.33;6.15;;;;;;;30.38;46.24;98427.19;4997711;28;20025;-45
2023/06/22 08:08:40;;;;;;;20.83;6.70;;;;;;;29.98;47.42;98433.22;5013912;28;20049;-45
2023/06/22 08:11:06;;;;;;;21.33;6.93;;;;;;;30.00;47.71;98429.06;5031820;28;20026;-45
2023/06/22 08:13:32;;;;;;;24.10;6.90;;;;;;;30.74;46.92;98418.28;5031787;28;20036;-45
2023/06/22 08:15:57;;;;;;;19.75;6.90;;;;;;;31.68;44.22;98423.69;4997692;28;20029;-45
2023/06/22 08:18:23;;;;;;;20.73;6.47;;;;;;;32.11;43.16;98444.59;5031775;28;20028;-45
2023/06/22 08:20:49;;;;;;;21.23;6.10;;;;;;;32.88;41.68;98453.41;5013936;28;20030;-45
2023/06/22 08:23:15;;;;;;;51.97;9.15;;;;;;;33.42;40.76;98471.69;5031660;28;20111;-45
2023/06/22 08:25:41;;;;;;;21.40;5.68;;;;;;;34.26;39.31;98475.63;5013957;28;20415;-45
2023/06/22 08:28:07;;;;;;;19.38;5.07;;;;;;;34.52;37.82;98488.50;5031696;28;20109;-45
2023/06/22 08:30:32;;;;;;;27.88;6.20;;;;;;;34.60;37.12;98492.13;5031628;28;20500;-45
2023/06/22 08:32:58;;;;;;;38.53;7.43;;;;;;;34.86;36.57;98493.34;5031668;28;20057;-45
2023/06/22 08:35:24;;;;;;;31.60;7.32;;;;;;;34.88;36.33;98501.94;5013855;28;20028;-45
2023/06/22 08:37:52;;;;;;;33.97;8.27;;;;;;;34.46;37.06;98535.50;5013836;28;20514;-45
2023/06/22 08:40:19;;;;;;;20.70;5.55;;;;;;;34.09;37.79;98539.53;5014102;28;20061;-45
2023/06/22 08:42:46;;;;;;;16.27;6.00;;;;;;;35.44;36.07;98544.84;5031503;28;20048;-45
2023/06/22 08:45:13;;;;;;;22.20;6.13;;;;;;;37.63;32.88;98570.66;5031436;28;20108;-45
2023/06/22 08:47:40;;;;;;;19.63;6.03;;;;;;;38.81;31.54;98565.44;5013697;28;20088;-46
2023/06/22 08:50:08;;;;;;;41.10;7.53;;;;;;;38.74;31.16;98566.25;5031514;28;20083;-48
2023/06/22 08:52:34;;;;;;;46.45;8.07;;;;;;;38.54;31.54;98556.84;5031734;28;20033;-48
2023/06/22 08:55:00;;;;;;;24.80;6.35;;;;;;;37.65;32.12;98555.44;5013788;28;20025;-48
2023/06/22 08:57:26;;;;;;;37.63;8.23;;;;;;;36.72;31.40;98561.06;5031441;28;20419;-47
2023/06/22 08:59:52;;;;;;;20.65;6.00;;;;;;;36.11;32.45;98563.19;5031666;28;20029;-45
2023/06/22 09:02:19;;;;;;;45.97;8.73;;;;;;;37.13;31.45;98562.97;5031250;28;20037;-45
2023/06/22 09:04:46;;;;;;;40.35;7.03;;;;;;;38.69;28.72;98550.16;5013631;28;20025;-48
2023/06/22 09:07:12;;;;;;;23.55;6.10;;;;;;;39.25;27.82;98550.50;5028926;28;20030;-48
2023/06/22 09:09:37;;;;;;;27.58;6.07;;;;;;;38.67;27.91;98552.53;5011697;28;20079;-48
2023/06/22 09:12:04;;;;;;;22.80;5.90;;;;;;;37.54;30.39;98566.28;5011530;28;20457;-48
2023/06/22 09:14:29;;;;;;;29.45;7.00;;;;;;;36.30;33.33;98567.72;4993901;28;20108;-48
2023/06/22 09:16:55;;;;;;;29.85;7.10;;;;;;;35.27;33.64;98573.44;4996625;28;20153;-45
2023/06/22 09:19:21;;;;;;;32.65;7.60;;;;;;;34.40;35.56;98575.91;5015021;28;20488;-45
2023/06/22 09:21:46;;;;;;;80.55;9.50;;;;;;;33.75;35.89;98579.31;4997431;28;20041;-45
2023/06/22 09:24:12;;;;;;;55.42;7.45;;;;;;;33.34;35.31;98576.84;4997531;28;20505;-45
2023/06/22 09:26:38;;;;;;;46.15;8.05;;;;;;;33.12;35.56;98594.63;5015037;28;20027;-45
2023/06/22 09:29:06;;;;;;;23.52;6.05;;;;;;;32.96;35.62;98593.81;4997589;28;20225;-45
2023/06/22 09:31:32;;;;;;;24.33;6.32;;;;;;;32.94;35.17;98588.75;5014991;28;20531;-45
2023/06/22 09:33:58;;;;;;;41.60;6.65;;;;;;;33.08;35.11;98596.41;5014776;28;20161;-45
2023/06/22 09:36:23;;;;;;;42.38;6.55;;;;;;;33.06;34.70;98590.53;4997143;28;20113;-45
2023/06/22 09:38:54;;;;;;;40.50;7.82;;;;;;;32.87;34.97;98588.56;4997182;28;20030;-45
2023/06/22 09:41:20;;;;;;;24.77;6.65;;;;;;;32.67;38.60;98576.81;5014792;28;20030;-45
2023/06/22 09:43:47;;;;;;;23.08;6.50;;;;;;;32.30;40.38;98584.34;5014783;28;20032;-45
2023/06/22 09:46:17;;;;;;;26.48;7.53;;;;;;;31.89;41.84;98589.03;5014622;28;20029;-45
2023/06/22 09:48:43;;;;;;;23.80;6.72;;;;;;;31.63;42.41;98588.31;4996926;28;20057;-45
2023/06/22 09:51:09;;;;;;;27.50;6.18;;;;;;;31.58;43.58;98577.69;5014609;28;20107;-45
2023/06/22 09:53:34;;;;;;;22.70;6.00;;;;;;;32.23;42.41;98557.78;5014511;28;20496;-45
2023/06/22 09:56:01;;;;;;;23.45;6.18;;;;;;;33.21;40.42;98535.38;4996842;28;20402;-45
2023/06/22 09:58:27;;;;;;;43.63;7.82;;;;;;;33.33;39.60;98536.41;5014466;28;20049;-45
2023/06/22 10:00:54;;;;;;;23.73;6.78;;;;;;;33.11;38.93;98541.38;4996832;28;20038;-45
2023/06/22 10:03:20;;;;;;;30.52;7.15;;;;;;;32.75;38.64;98550.59;4996744;28;20057;-45
2023/06/22 10:05:46;;;;;;;24.20;5.60;;;;;;;32.29;38.72;98559.13;5014217;28;20030;-45
2023/06/22 10:08:12;;;;;;;19.98;6.57;;;;;;;31.77;39.79;98570.84;5003715;28;20081;-45
2023/06/22 10:10:37;;;;;;;20.83;5.30;;;;;;;31.37;40.78;98583.25;5014225;28;20466;-45
2023/06/22 10:13:10;;;;;;;24.52;6.55;;;;;;;31.33;41.65;98585.06;5014222;28;20057;-45
2023/06/22 10:15:36;;;;;;;37.60;6.95;;;;;;;31.51;41.04;98588.34;5014006;28;20116;-45
2023/06/22 10:18:02;;;;;;;24.95;6.18;;;;;;;31.80;40.28;98594.59;5012782;28;20129;-45
2023/06/22 10:20:28;;;;;;;34.92;6.57;;;;;;;32.07;39.45;98608.56;5012546;28;20029;-45
2023/06/22 10:22:53;;;;;;;24.45;5.95;;;;;;;32.03;38.55;98622.03;5014241;28;20109;-45
2023/06/22 10:25:19;;;;;;;24.17;7.60;;;;;;;31.94;38.92;98624.09;5012751;28;20558;-45
2023/06/22 10:27:45;;;;;;;17.70;5.25;;;;;;;31.71;39.68;98629.22;5013848;28;20038;-45
2023/06/22 10:30:15;;;;;;;18.45;5.90;;;;;;;31.36;40.25;98624.25;5012513;28;20400;-45
2023/06/22 10:32:42;;;;;;;32.47;6.70;;;;;;;31.24;40.71;98606.06;5014100;28;20034;-45
2023/06/22 10:35:10;;;;;;;26.95;6.45;;;;;;;31.41;40.02;98616.69;5012508;28;20026;-44
2023/06/22 10:37:36;;;;;;;36.03;6.97;;;;;;;31.76;39.67;98623.56;5013948;28;20512;-45
2023/06/22 10:40:03;;;;;;;20.40;5.60;;;;;;;32.12;39.15;98616.47;5012381;28;20041;-45
2023/06/22 10:42:29;;;;;;;21.27;5.97;;;;;;;32.47;38.61;98615.84;5013891;28;20125;-45
2023/06/22 10:44:55;;;;;;;27.33;5.68;;;;;;;32.64;37.61;98615.56;5012296;28;20475;-45
2023/06/22 10:47:20;;;;;;;25.35;5.95;;;;;;;32.73;37.62;98607.22;5012357;28;20041;-45
2023/06/22 10:49:46;;;;;;;19.80;6.15;;;;;;;32.87;36.92;98604.88;5012205;28;20033;-45
2023/06/22 10:52:12;;;;;;;20.45;6.30;;;;;;;32.93;36.85;98610.84;5013506;28;20064;-45
2023/06/22 10:54:38;;;;;;;19.55;5.32;;;;;;;32.84;37.15;98611.81;5013451;28;20018;-45
2023/06/22 10:57:04;;;;;;;21.25;5.93;;;;;;;32.74;36.82;98615.03;5012129;28;20033;-45
2023/06/22 10:59:29;;;;;;;24.77;5.97;;;;;;;32.61;37.54;98618.97;5012095;28;20033;-45
2023/06/22 11:01:56;;;;;;;14.70;5.07;;;;;;;32.60;37.24;98617.41;5013299;28;20042;-45
2023/06/22 11:04:22;;;;;;;18.92;5.18;;;;;;;32.62;37.64;98621.34;5013259;28;20026;-45
2023/06/22 11:06:48;;;;;;;27.80;6.40;;;;;;;32.95;37.70;98625.66;5012042;28;20037;-45
2023/06/22 11:09:18;;;;;;;29.55;6.63;;;;;;;33.53;37.08;98635.97;5012992;28;20425;-45
2023/06/22 11:11:45;;;;;;;22.13;6.30;;;;;;;33.90;36.46;98648.44;4996245;28;20034;-45
2023/06/22 11:14:10;;;;;;;24.08;6.32;;;;;;;33.99;35.95;98638.94;5013015;28;20563;-45
2023/06/22 11:16:36;;;;;;;22.25;6.97;;;;;;;34.00;35.67;98640.50;4995361;28;20116;-45
2023/06/22 11:19:04;;;;;;;28.50;5.82;;;;;;;33.84;35.85;98650.66;5013185;28;20049;-44
2023/06/22 11:21:31;;;;;;;19.63;6.63;;;;;;;33.65;36.00;98648.69;4995237;28;20044;-45
2023/06/22 11:23:57;;;;;;;18.60;5.88;;;;;;;33.66;36.06;98657.66;4995159;28;20026;-45